createdAt,value
2016-02-19T00:00:58.221Z,45.16
2016-02-19T00:01:58.271Z,45.16
2016-02-19T00:02:58.321Z,44.97
2016-02-19T00:03:58.369Z,44.97
2016-02-19T00:04:58.419Z,45.16
2016-02-19T00:05:58.469Z,44.97
2016-02-19T00:06:58.518Z,45.07
2016-02-19T00:07:58.569Z,45.54
2016-02-19T00:08:58.633Z,45.26
2016-02-19T00:09:58.668Z,45.07
2016-02-19T00:10:58.748Z,45.54
2016-02-19T00:11:58.782Z,45.16
2016-02-19T00:12:58.832Z,45.54
2016-02-19T00:13:58.896Z,45.36
2016-02-19T00:14:58.931Z,45.26
2016-02-19T00:15:58.980Z,45.16
2016-02-19T00:16:59.045Z,45.16
2016-02-19T00:17:59.095Z,45.45
2016-02-19T00:18:59.129Z,45.45
2016-02-19T00:19:59.178Z,45.26
2016-02-19T00:20:59.212Z,45.74
2016-02-19T00:21:59.278Z,45.93
2016-02-19T00:22:59.327Z,45.45
2016-02-19T00:23:59.361Z,45.45
2016-02-19T00:24:59.426Z,45.54
2016-02-19T00:25:59.475Z,46.12
2016-02-19T00:26:59.526Z,45.36
2016-02-19T00:27:59.575Z,45.74
2016-02-19T00:28:59.624Z,46.22
2016-02-19T00:29:59.674Z,45.74
2016-02-19T00:30:59.728Z,46.03
2016-02-19T00:31:59.793Z,46.22
2016-02-19T00:32:59.827Z,46.41
2016-02-19T00:33:59.892Z,45.74
2016-02-19T00:34:59.925Z,46.03
2016-02-19T00:35:59.976Z,45.93
2016-02-19T00:37:00.040Z,46.03
2016-02-19T00:38:00.089Z,45.83
2016-02-19T00:39:00.140Z,45.74
2016-02-19T00:40:00.173Z,45.93
2016-02-19T00:41:00.239Z,45.83
2016-02-19T00:42:00.289Z,45.74
2016-02-19T00:43:00.338Z,45.83
2016-02-19T00:44:00.388Z,46.12
2016-02-19T00:45:00.437Z,45.93
2016-02-19T00:46:00.486Z,46.79
2016-02-19T00:47:00.536Z,46.7
2016-02-19T00:48:00.585Z,46.6
2016-02-19T00:49:00.652Z,46.6
2016-02-19T00:50:00.685Z,46.79
2016-02-19T00:51:00.735Z,46.12
2016-02-19T00:52:00.785Z,45.93
2016-02-19T00:53:00.083Z,45.83
2016-02-19T00:54:00.868Z,45.83
2016-02-19T00:55:00.933Z,45.93
2016-02-19T00:56:00.982Z,45.83
2016-02-19T00:57:01.032Z,45.83
2016-02-19T00:58:01.066Z,45.83
2016-02-19T00:59:01.131Z,46.5
2016-02-19T01:00:01.181Z,46.5
2016-02-19T01:01:01.230Z,46.41
2016-02-19T01:02:01.279Z,46.5
2016-02-19T01:03:01.329Z,46.89
2016-02-19T01:04:01.379Z,46.31
2016-02-19T01:05:01.319Z,46.31
2016-02-19T01:06:01.487Z,46.41
2016-02-19T01:07:01.552Z,47.08
2016-02-19T01:08:01.585Z,46.98
2016-02-19T01:09:01.635Z,47.25
2016-02-19T01:10:01.701Z,46.98
2016-02-19T01:11:01.718Z,47.08
2016-02-19T01:12:01.768Z,47.17
2016-02-19T01:13:01.849Z,46.79
2016-02-19T01:14:01.884Z,47.08
2016-02-19T01:15:01.932Z,47.08
2016-02-19T01:16:01.982Z,47.85
2016-02-19T01:17:02.032Z,47.46
2016-02-19T01:18:02.081Z,46.79
2016-02-19T01:19:02.147Z,46.7
2016-02-19T01:20:02.195Z,46.89
2016-02-19T01:21:02.245Z,46.98
2016-02-19T01:22:02.296Z,46.7
2016-02-19T01:23:02.345Z,47.75
2016-02-19T01:24:02.394Z,47.27
2016-02-19T01:25:02.445Z,46.98
2016-02-19T01:26:02.494Z,46.79
2016-02-19T01:27:02.544Z,46.67
2016-02-19T01:28:02.592Z,46.89
2016-02-19T01:29:02.627Z,46.98
2016-02-19T01:30:02.677Z,47.37
2016-02-19T01:31:02.758Z,46.7
2016-02-19T01:32:02.792Z,46.89
2016-02-19T01:33:02.841Z,46.98
2016-02-19T01:34:02.905Z,47.94
2016-02-19T01:35:02.940Z,47.17
2016-02-19T01:36:02.989Z,47.56
2016-02-19T01:37:03.038Z,47.53
2016-02-19T01:38:03.088Z,47.27
2016-02-19T01:39:03.138Z,47.85
2016-02-19T01:40:03.187Z,47.37
2016-02-19T01:41:03.238Z,47.53
2016-02-19T01:42:03.287Z,47.85
2016-02-19T01:43:03.336Z,47.85
2016-02-19T01:44:03.386Z,47.75
2016-02-19T01:45:03.435Z,47.56
2016-02-19T01:46:03.485Z,47.46
2016-02-19T01:47:03.535Z,47.37
2016-02-19T01:48:03.600Z,47.53
2016-02-19T01:49:03.634Z,47.56
2016-02-19T01:50:03.699Z,47.85
2016-02-19T01:51:03.764Z,48.52
2016-02-19T01:52:03.798Z,48.43
2016-02-19T01:53:03.832Z,47.94
2016-02-19T01:54:03.882Z,48.13
2016-02-19T01:55:03.947Z,48.33
2016-02-19T01:56:03.997Z,48.23
2016-02-19T01:57:04.045Z,47.85
2016-02-19T01:58:04.095Z,48.52
2016-02-19T01:59:04.144Z,48.33
2016-02-19T02:00:04.194Z,48.52
2016-02-19T02:01:04.244Z,48.4
2016-02-19T02:02:04.293Z,48.33
2016-02-19T02:03:04.358Z,48.04
2016-02-19T02:04:04.393Z,48.43
2016-02-19T02:05:04.442Z,48.4
2016-02-19T02:06:04.491Z,48.11
2016-02-19T02:07:04.557Z,47.73
2016-02-19T02:08:04.607Z,48.52
2016-02-19T02:09:04.641Z,48.71
2016-02-19T02:10:04.690Z,48.9
2016-02-19T02:11:04.740Z,48.78
2016-02-19T02:12:04.804Z,48.43
2016-02-19T02:13:04.855Z,48.33
2016-02-19T02:14:04.904Z,48.4
2016-02-19T02:15:04.953Z,48.23
2016-02-19T02:16:05.004Z,48.61
2016-02-19T02:17:05.053Z,48.9
2016-02-19T02:18:05.087Z,48.33
2016-02-19T02:19:05.168Z,48.21
2016-02-19T02:20:05.201Z,48.21
2016-02-19T02:21:05.251Z,48.21
2016-02-19T02:22:05.317Z,48.4
2016-02-19T02:23:05.351Z,48.59
2016-02-19T02:24:05.384Z,48.69
2016-02-19T02:25:05.449Z,48.49
2016-02-19T02:26:05.498Z,48.69
2016-02-19T02:27:05.548Z,48.59
2016-02-19T02:28:05.598Z,48.78
2016-02-19T02:29:05.664Z,48.78
2016-02-19T02:30:05.697Z,48.69
2016-02-19T02:31:05.746Z,49.07
2016-02-19T02:32:05.797Z,48.69
2016-02-19T02:33:05.861Z,48.78
2016-02-19T02:34:05.894Z,48.88
2016-02-19T02:35:05.961Z,48.78
2016-02-19T02:36:06.010Z,48.97
2016-02-19T02:37:06.091Z,49.07
2016-02-19T02:38:06.109Z,49.07
2016-02-19T02:39:06.158Z,48.97
2016-02-19T02:40:06.208Z,48.97
2016-02-19T02:41:06.257Z,48.88
2016-02-19T02:42:06.292Z,48.49
2016-02-19T02:43:06.417Z,48.88
2016-02-19T02:44:07.225Z,48.78
2016-02-19T02:45:06.442Z,48.88
2016-02-19T02:46:10.781Z,48.49
2016-02-19T02:47:06.675Z,48.78
2016-02-19T02:48:06.598Z,48.49
2016-02-19T02:49:06.648Z,48.78
2016-02-19T02:50:06.698Z,48.78
2016-02-19T02:51:06.592Z,48.4
2016-02-19T02:52:06.813Z,48.4
2016-02-19T02:53:06.847Z,48.59
2016-02-19T02:54:06.897Z,48.69
2016-02-19T02:55:07.009Z,49.16
2016-02-19T02:56:07.004Z,49.26
2016-02-19T02:57:07.039Z,49.36
2016-02-19T02:58:07.103Z,49.36
2016-02-19T02:59:07.153Z,49.45
2016-02-19T03:00:07.217Z,49.45
2016-02-19T03:01:07.237Z,49.84
2016-02-19T03:02:07.302Z,49.36
2016-02-19T03:03:07.351Z,49.36
2016-02-19T03:04:07.400Z,49.36
2016-02-19T03:05:07.450Z,49.26
2016-02-19T03:06:07.516Z,49.07
2016-02-19T03:07:07.550Z,49.93
2016-02-19T03:08:07.615Z,49.36
2016-02-19T03:09:07.649Z,49.26
2016-02-19T03:10:07.698Z,49.26
2016-02-19T03:11:07.763Z,49.36
2016-02-19T03:12:07.797Z,49.07
2016-02-19T03:13:07.862Z,49.26
2016-02-19T03:14:07.912Z,49.26
2016-02-19T03:15:07.946Z,49.36
2016-02-19T03:16:08.010Z,49.36
2016-02-19T03:17:08.061Z,49.16
2016-02-19T03:18:08.110Z,49.36
2016-02-19T03:19:08.160Z,49.26
2016-02-19T03:20:08.225Z,49.26
2016-02-19T03:21:08.259Z,48.78
2016-02-19T03:22:08.309Z,49.36
2016-02-19T03:23:08.358Z,49.26
2016-02-19T03:24:08.407Z,49.36
2016-02-19T03:25:08.473Z,49.36
2016-02-19T03:26:08.537Z,49.36
2016-02-19T03:27:08.573Z,49.36
2016-02-19T03:28:08.622Z,49.26
2016-02-19T03:29:08.702Z,49.36
2016-02-19T03:30:08.720Z,49.07
2016-02-19T03:31:08.770Z,49.36
2016-02-19T03:32:08.836Z,49.26
2016-02-19T03:33:08.869Z,49.26
2016-02-19T03:34:08.903Z,49.45
2016-02-19T03:35:08.969Z,49.65
2016-02-19T03:36:09.018Z,49.45
2016-02-19T03:37:09.084Z,49.55
2016-02-19T03:38:09.133Z,49.36
2016-02-19T03:39:09.167Z,49.36
2016-02-19T03:40:09.216Z,49.26
2016-02-19T03:41:09.282Z,49.26
2016-02-19T03:42:09.315Z,49.55
2016-02-19T03:43:09.396Z,49.36
2016-02-19T03:44:09.430Z,49.36
2016-02-19T03:45:09.463Z,49.55
2016-02-19T03:46:09.514Z,49.07
2016-02-19T03:47:09.563Z,49.26
2016-02-19T03:48:09.613Z,49.45
2016-02-19T03:49:09.662Z,49.93
2016-02-19T03:50:09.727Z,49.45
2016-02-19T03:51:09.762Z,49.65
2016-02-19T03:52:09.811Z,49.93
2016-02-19T03:53:09.876Z,50.22
2016-02-19T03:54:09.926Z,49.93
2016-02-19T03:55:09.959Z,50.32
2016-02-19T03:56:10.041Z,50.03
2016-02-19T03:57:10.090Z,49.84
2016-02-19T03:58:10.109Z,49.93
2016-02-19T03:59:10.173Z,49.93
2016-02-19T04:00:10.208Z,49.93
2016-02-19T04:01:10.304Z,50.22
2016-02-19T04:02:10.322Z,50.22
2016-02-19T04:03:10.356Z,50.12
2016-02-19T04:04:10.422Z,50.32
2016-02-19T04:05:10.471Z,50.03
2016-02-19T04:06:10.505Z,49.93
2016-02-19T04:07:10.555Z,49.74
2016-02-19T04:08:10.635Z,50.22
2016-02-19T04:09:10.669Z,49.93
2016-02-19T04:10:10.703Z,50.12
2016-02-19T04:11:10.783Z,49.93
2016-02-19T04:12:10.802Z,49.93
2016-02-19T04:13:10.883Z,49.65
2016-02-19T04:14:10.917Z,50.03
2016-02-19T04:15:10.987Z,50.03
2016-02-19T04:16:11.037Z,50.03
2016-02-19T04:17:11.055Z,50.7
2016-02-19T04:18:11.120Z,50.6
2016-02-19T04:19:11.170Z,50.22
2016-02-19T04:20:11.204Z,49.74
2016-02-19T04:21:11.268Z,50.51
2016-02-19T04:22:11.318Z,50.6
2016-02-19T04:23:11.368Z,50.6
2016-02-19T04:24:11.402Z,50.41
2016-02-19T04:25:11.483Z,50.51
2016-02-19T04:26:11.501Z,50.6
2016-02-19T04:27:11.597Z,50.32
2016-02-19T04:28:11.616Z,50.03
2016-02-19T04:29:11.649Z,50.79
2016-02-19T04:30:11.715Z,50.12
2016-02-19T04:31:11.780Z,50.7
2016-02-19T04:32:11.830Z,49.93
2016-02-19T04:33:11.880Z,50.22
2016-02-19T04:34:11.928Z,50.41
2016-02-19T04:35:11.947Z,50.51
2016-02-19T04:36:12.028Z,50.51
2016-02-19T04:37:12.077Z,50.6
2016-02-19T04:38:12.127Z,50.7
2016-02-19T04:39:12.160Z,50.6
2016-02-19T04:40:12.242Z,50.51
2016-02-19T04:41:12.260Z,50.41
2016-02-19T04:42:12.310Z,50.12
2016-02-19T04:43:12.375Z,50.51
2016-02-19T04:44:12.424Z,50.89
2016-02-19T04:45:12.458Z,50.6
2016-02-19T04:46:12.524Z,50.79
2016-02-19T04:47:12.557Z,50.79
2016-02-19T04:48:12.623Z,50.89
2016-02-19T04:49:12.672Z,50.51
2016-02-19T04:50:12.737Z,50.32
2016-02-19T04:51:12.756Z,50.51
2016-02-19T04:52:12.806Z,50.51
2016-02-19T04:53:12.855Z,50.51
2016-02-19T04:54:12.936Z,50.51
2016-02-19T04:55:12.969Z,50.89
2016-02-19T04:56:13.020Z,50.6
2016-02-19T04:57:13.069Z,50.6
2016-02-19T04:58:13.134Z,50.7
2016-02-19T04:59:13.152Z,50.99
2016-02-19T05:00:13.233Z,50.99
2016-02-19T05:01:13.298Z,50.6
2016-02-19T05:02:13.332Z,50.79
2016-02-19T05:03:13.367Z,50.79
2016-02-19T05:04:13.416Z,50.79
2016-02-19T05:05:13.496Z,50.79
2016-02-19T05:06:13.531Z,50.7
2016-02-19T05:07:13.564Z,50.7
2016-02-19T05:08:13.614Z,51.08
2016-02-19T05:09:13.694Z,50.79
2016-02-19T05:10:13.713Z,50.7
2016-02-19T05:11:13.778Z,50.99
2016-02-19T05:12:13.843Z,50.87
2016-02-19T05:13:13.863Z,50.79
2016-02-19T05:14:13.958Z,51.08
2016-02-19T05:15:13.976Z,50.77
2016-02-19T05:16:14.011Z,50.96
2016-02-19T05:17:14.076Z,50.77
2016-02-19T05:18:14.126Z,50.89
2016-02-19T05:19:14.159Z,50.87
2016-02-19T05:20:14.224Z,50.87
2016-02-19T05:21:14.244Z,50.99
2016-02-19T05:22:14.277Z,50.99
2016-02-19T05:23:14.327Z,50.99
2016-02-19T05:24:14.345Z,51.06
2016-02-19T05:25:14.378Z,50.96
2016-02-19T05:26:14.438Z,50.58
2016-02-19T05:27:14.481Z,51.15
2016-02-19T05:28:14.524Z,51.34
2016-02-19T05:29:14.600Z,51.08
2016-02-19T05:30:14.613Z,50.58
2016-02-19T05:31:14.644Z,50.89
2016-02-19T05:32:13.958Z,50.96
2016-02-19T05:33:14.771Z,50.96
2016-02-19T05:34:14.788Z,51.25
2016-02-19T05:35:14.835Z,50.96
2016-02-19T05:36:14.915Z,51.06
2016-02-19T05:37:14.933Z,51.15
2016-02-19T05:38:14.997Z,51.18
2016-02-19T05:39:15.046Z,51.34
2016-02-19T05:40:14.953Z,51.18
2016-02-19T05:41:15.129Z,51.44
2016-02-19T05:42:15.194Z,51.15
2016-02-19T05:43:15.259Z,51.15
2016-02-19T05:44:15.309Z,50.96
2016-02-19T05:45:15.342Z,51.15
2016-02-19T05:46:15.376Z,51.15
2016-02-19T05:47:15.458Z,51.15
2016-02-19T05:48:15.491Z,51.18
2016-02-19T05:49:15.541Z,51.15
2016-02-19T05:50:15.605Z,51.15
2016-02-19T05:51:15.640Z,51.25
2016-02-19T05:52:15.705Z,51.15
2016-02-19T05:53:15.755Z,51.06
2016-02-19T05:54:15.789Z,51.15
2016-02-19T05:55:15.854Z,51.25
2016-02-19T05:56:15.888Z,50.96
2016-02-19T05:57:15.937Z,51.15
2016-02-19T05:58:15.988Z,51.15
2016-02-19T05:59:16.036Z,50.96
2016-02-19T06:00:16.101Z,51.08
2016-02-19T06:01:16.135Z,51.15
2016-02-19T06:02:16.216Z,51.15
2016-02-19T06:03:16.219Z,51.44
2016-02-19T06:04:16.300Z,51.15
2016-02-19T06:05:16.349Z,50.96
2016-02-19T06:06:16.375Z,50.96
2016-02-19T06:07:16.456Z,50.96
2016-02-19T06:08:16.489Z,51.18
2016-02-19T06:09:16.555Z,51.25
2016-02-19T06:10:16.588Z,51.25
2016-02-19T06:11:16.639Z,51.15
2016-02-19T06:12:16.703Z,51.15
2016-02-19T06:13:16.753Z,50.96
2016-02-19T06:14:16.786Z,50.96
2016-02-19T06:15:16.836Z,51.06
2016-02-19T06:16:16.902Z,51.54
2016-02-19T06:17:16.919Z,51.54
2016-02-19T06:18:17.001Z,51.06
2016-02-19T06:19:17.050Z,51.34
2016-02-19T06:20:17.115Z,51.34
2016-02-19T06:21:17.149Z,51.44
2016-02-19T06:22:17.199Z,51.34
2016-02-19T06:23:17.263Z,51.63
2016-02-19T06:24:17.282Z,51.73
2016-02-19T06:25:17.348Z,51.34
2016-02-19T06:26:17.382Z,51.73
2016-02-19T06:27:17.431Z,51.54
2016-02-19T06:28:17.481Z,52.2
2016-02-19T06:29:17.530Z,52.2
2016-02-19T06:30:17.595Z,52.3
2016-02-19T06:31:17.629Z,52.3
2016-02-19T06:32:17.679Z,52.3
2016-02-19T06:33:17.744Z,52.3
2016-02-19T06:34:17.793Z,52.2
2016-02-19T06:35:17.827Z,51.92
2016-02-19T06:36:17.893Z,51.92
2016-02-19T06:37:17.942Z,52.11
2016-02-19T06:38:17.992Z,47.51
2016-02-19T06:39:18.042Z,42.14
2016-02-19T06:40:18.076Z,41.48
2016-02-19T06:41:18.125Z,39.73
2016-02-19T06:42:18.206Z,38.49
2016-02-19T06:43:18.224Z,37.8
2016-02-19T06:45:59.966Z,39.12
2016-02-19T06:46:59.861Z,38.91
2016-02-19T06:48:00.066Z,38.53
2016-02-19T06:49:00.116Z,39.65
2016-02-19T06:50:00.180Z,39.27
2016-02-19T06:51:00.214Z,39.18
2016-02-19T06:52:00.296Z,40.03
2016-02-19T06:53:00.313Z,40.88
2016-02-19T06:54:00.364Z,40.3
2016-02-19T06:55:00.413Z,39.83
2016-02-19T06:56:00.463Z,39.54
2016-02-19T06:57:00.512Z,38.87
2016-02-19T06:58:00.562Z,38.49
2016-02-19T06:59:00.596Z,38.01
2016-02-19T07:00:01.067Z,37.71
2016-02-19T07:01:00.710Z,37.9
2016-02-19T07:02:00.760Z,37.71
2016-02-19T07:03:00.793Z,37.8
2016-02-19T07:04:00.843Z,37.59
2016-02-19T07:05:00.898Z,37.78
2016-02-19T07:06:00.932Z,38.35
2016-02-19T07:07:00.981Z,39.12
2016-02-19T07:08:01.047Z,38.83
2016-02-19T07:09:01.081Z,39.12
2016-02-19T07:10:01.130Z,39.4
2016-02-19T07:11:01.211Z,39.31
2016-02-19T07:12:01.229Z,40.64
2016-02-19T07:13:01.278Z,43.89
2016-02-19T07:14:01.328Z,45.03
2016-02-19T07:15:01.393Z,46.27
2016-02-19T07:16:01.444Z,45.92
2016-02-19T07:17:01.477Z,45.15
2016-02-19T07:18:01.526Z,46.61
2016-02-19T07:19:01.560Z,46.13
2016-02-19T07:20:01.610Z,45.17
2016-02-19T07:21:01.675Z,45.01
2016-02-19T07:22:01.710Z,45.1
2016-02-19T07:23:01.759Z,45.39
2016-02-19T07:24:01.840Z,45.03
2016-02-19T07:25:01.857Z,44.93
2016-02-19T07:26:01.908Z,44.74
2016-02-19T07:27:01.941Z,44.65
2016-02-19T07:28:02.007Z,44.45
2016-02-19T07:29:02.040Z,44.55
2016-02-19T07:30:02.090Z,44.55
2016-02-19T07:31:02.171Z,44.17
2016-02-19T07:32:02.204Z,44.19
2016-02-19T07:33:02.255Z,44.57
2016-02-19T07:34:02.288Z,44.86
2016-02-19T07:35:02.369Z,44.48
2016-02-19T07:36:02.403Z,44.48
2016-02-19T07:37:02.437Z,44.57
2016-02-19T07:38:02.503Z,44.29
2016-02-19T07:39:02.520Z,44.76
2016-02-19T07:40:02.586Z,44.29
2016-02-19T07:41:02.620Z,44.29
2016-02-19T07:42:02.669Z,44.38
2016-02-19T07:43:02.578Z,44.5
2016-02-19T07:44:02.784Z,44.5
2016-02-19T07:45:02.817Z,44.48
2016-02-19T07:46:02.867Z,44.5
2016-02-19T07:47:02.917Z,44.59
2016-02-19T07:48:02.967Z,44.5
2016-02-19T07:49:03.016Z,44.5
2016-02-19T07:50:03.065Z,44.4
2016-02-19T07:51:03.100Z,44.21
2016-02-19T07:52:03.165Z,44.21
2016-02-19T07:53:03.230Z,44.59
2016-02-19T07:54:03.264Z,44.4
2016-02-19T07:55:03.313Z,44.5
2016-02-19T07:56:03.347Z,44.4
2016-02-19T07:57:03.413Z,44.59
2016-02-19T07:58:03.478Z,44.5
2016-02-19T07:59:03.496Z,44.59
2016-02-19T08:00:03.546Z,44.59
2016-02-19T08:01:03.610Z,44.79
2016-02-19T08:02:03.645Z,44.88
2016-02-19T08:03:03.726Z,44.88
2016-02-19T08:04:03.743Z,44.88
2016-02-19T08:05:03.815Z,45.17
2016-02-19T08:06:03.848Z,44.88
2016-02-19T08:07:03.898Z,44.98
2016-02-19T08:08:03.947Z,44.79
2016-02-19T08:09:03.997Z,45.26
2016-02-19T08:10:04.061Z,44.98
2016-02-19T08:11:04.095Z,44.79
2016-02-19T08:12:04.145Z,44.98
2016-02-19T08:13:04.226Z,45.07
2016-02-19T08:14:04.244Z,45.07
2016-02-19T08:15:04.325Z,44.9
2016-02-19T08:16:04.344Z,45.19
2016-02-19T08:17:04.394Z,45.09
2016-02-19T08:18:04.427Z,44.79
2016-02-19T08:19:04.476Z,45.07
2016-02-19T08:20:04.558Z,45.09
2016-02-19T08:21:04.576Z,45.07
2016-02-19T08:22:04.625Z,45.07
2016-02-19T08:23:04.691Z,44.69
2016-02-19T08:24:04.724Z,45.07
2016-02-19T08:25:04.774Z,45.07
2016-02-19T08:26:04.824Z,45.17
2016-02-19T08:27:04.888Z,45.17
2016-02-19T08:28:04.923Z,45.45
2016-02-19T08:29:04.987Z,46.31
2016-02-19T08:30:05.022Z,46.22
2016-02-19T08:31:05.071Z,46.15
2016-02-19T08:32:05.152Z,46.53
2016-02-19T08:33:05.155Z,45.86
2016-02-19T08:34:05.298Z,46.15
2016-02-19T08:35:05.301Z,46.15
2016-02-19T08:36:05.335Z,46.44
2016-02-19T08:37:05.370Z,47.01
2016-02-19T08:38:05.418Z,46.53
2016-02-19T08:39:05.452Z,46.34
2016-02-19T08:40:05.533Z,46.62
2016-02-19T08:41:05.567Z,46.05
2016-02-19T08:42:05.616Z,45.86
2016-02-19T08:43:05.682Z,46.25
2016-02-19T08:44:05.716Z,46.34
2016-02-19T08:45:05.766Z,46.25
2016-02-19T08:46:05.846Z,46.53
2016-02-19T08:47:05.864Z,46.44
2016-02-19T08:48:05.914Z,46.25
2016-02-19T08:49:05.964Z,46.15
2016-02-19T08:50:06.013Z,46.53
2016-02-19T08:51:06.047Z,45.86
2016-02-19T08:52:06.112Z,45.86
2016-02-19T08:53:06.163Z,46.53
2016-02-19T08:54:06.196Z,46.15
2016-02-19T08:55:06.261Z,45.86
2016-02-19T08:56:06.295Z,45.86
2016-02-19T08:57:06.344Z,45.86
2016-02-19T08:58:06.410Z,45.48
2016-02-19T08:59:06.474Z,46.15
2016-02-19T09:00:06.509Z,45.86
2016-02-19T09:01:06.590Z,46.34
2016-02-19T09:02:06.607Z,45.86
2016-02-19T09:03:06.642Z,46.05
2016-02-19T09:04:06.692Z,46.25
2016-02-19T09:05:06.757Z,45.86
2016-02-19T09:06:06.790Z,45.86
2016-02-19T09:07:06.840Z,45.96
2016-02-19T09:08:06.906Z,45.86
2016-02-19T09:09:06.205Z,46.05
2016-02-19T09:10:06.989Z,46.25
2016-02-19T09:11:07.039Z,46.75
2016-02-19T09:12:07.120Z,46.25
2016-02-19T09:13:07.137Z,46.17
2016-02-19T09:14:07.187Z,46.44
2016-02-19T09:15:07.252Z,45.38
2016-02-19T09:16:07.286Z,45.98
2016-02-19T09:17:07.335Z,46.55
2016-02-19T09:18:07.386Z,46.94
2016-02-19T09:19:07.435Z,46.55
2016-02-19T09:20:07.499Z,46.46
2016-02-19T09:21:07.549Z,46.75
2016-02-19T09:22:07.583Z,46.94
2016-02-19T09:23:07.633Z,46.94
2016-02-19T09:24:07.699Z,47.03
2016-02-19T09:25:07.732Z,47.13
2016-02-19T09:26:07.782Z,47.03
2016-02-19T09:27:07.846Z,47.11
2016-02-19T09:28:07.882Z,47.13
2016-02-19T09:29:07.930Z,47.22
2016-02-19T09:30:07.979Z,46.91
2016-02-19T09:31:08.045Z,46.94
2016-02-19T09:32:08.063Z,46.94
2016-02-19T09:33:08.129Z,47.71
2016-02-19T09:34:08.179Z,47.13
2016-02-19T09:35:08.243Z,46.84
2016-02-19T09:36:08.278Z,46.94
2016-02-19T09:37:08.326Z,47.61
2016-02-19T09:38:08.393Z,46.94
2016-02-19T09:39:08.457Z,46.75
2016-02-19T09:40:08.475Z,46.75
2016-02-19T09:41:08.525Z,46.65
2016-02-19T09:42:08.590Z,47.42
2016-02-19T09:43:08.608Z,47.89
2016-02-19T09:44:08.675Z,47.13
2016-02-19T09:45:08.723Z,47.13
2016-02-19T09:46:08.757Z,47.61
2016-02-19T09:47:08.838Z,46.94
2016-02-19T09:48:08.872Z,46.75
2016-02-19T09:49:08.922Z,46.75
2016-02-19T09:50:08.971Z,46.94
2016-02-19T09:51:09.005Z,47.32
2016-02-19T09:52:09.086Z,46.75
2016-02-19T09:53:09.119Z,46.75
2016-02-19T09:54:09.155Z,46.75
2016-02-19T09:55:09.219Z,47.71
2016-02-19T09:56:09.268Z,46.75
2016-02-19T09:57:09.302Z,46.94
2016-02-19T09:58:09.352Z,46.94
2016-02-19T09:59:09.418Z,46.94
2016-02-19T10:00:09.467Z,47.22
2016-02-19T10:01:09.516Z,47.32
2016-02-19T10:02:09.551Z,47.99
2016-02-19T10:03:09.615Z,47.13
2016-02-19T10:04:09.665Z,47.42
2016-02-19T10:05:09.715Z,47.42
2016-02-19T10:06:09.764Z,47.42
2016-02-19T10:07:09.815Z,47.71
2016-02-19T10:08:09.864Z,47.32
2016-02-19T10:09:09.913Z,47.32
2016-02-19T10:10:09.962Z,47.42
2016-02-19T10:11:10.012Z,47.32
2016-02-19T10:12:10.061Z,47.13
2016-02-19T10:13:10.128Z,47.32
2016-02-19T10:14:10.145Z,47.89
2016-02-19T10:15:10.211Z,47.32
2016-02-19T10:16:10.260Z,47.89
2016-02-19T10:17:10.309Z,47.42
2016-02-19T10:18:10.359Z,47.22
2016-02-19T10:19:10.424Z,47.32
2016-02-19T10:20:10.458Z,47.13
2016-02-19T10:21:10.555Z,46.65
2016-02-19T10:22:10.572Z,46.75
2016-02-19T10:23:10.592Z,46.55
2016-02-19T10:24:10.657Z,46.65
2016-02-19T10:25:10.705Z,46.17
2016-02-19T10:26:10.772Z,44.73
2016-02-19T10:27:10.805Z,44.26
2016-02-19T10:28:10.855Z,45.12
2016-02-19T10:29:10.904Z,44.93
2016-02-19T10:30:10.954Z,45.31
2016-02-19T10:31:11.019Z,45.02
2016-02-19T10:32:11.054Z,43.87
2016-02-19T10:33:11.103Z,42.53
2016-02-19T10:34:11.137Z,40.9
2016-02-19T10:35:11.201Z,40.23
2016-02-19T10:36:11.251Z,40.88
2016-02-19T10:37:11.285Z,39.73
2016-02-19T10:38:11.350Z,45
2016-02-19T10:39:11.400Z,45.86
2016-02-19T10:40:11.450Z,46.44
2016-02-19T10:41:11.530Z,46.34
2016-02-19T10:42:11.565Z,46.65
2016-02-19T10:43:11.614Z,46.46
2016-02-19T10:44:11.631Z,47.03
2016-02-19T10:45:11.729Z,46.36
2016-02-19T10:46:11.762Z,46.36
2016-02-19T10:47:11.797Z,46.26
2016-02-19T10:48:11.689Z,46.55
2016-02-19T10:49:11.911Z,47.03
2016-02-19T10:50:11.930Z,46.94
2016-02-19T10:51:12.026Z,46.26
2016-02-19T10:52:12.076Z,47.22
2016-02-19T10:53:12.110Z,46.94
2016-02-19T10:54:12.144Z,47.71
2016-02-19T10:55:12.178Z,47.61
2016-02-19T10:56:12.258Z,47.13
2016-02-19T10:57:12.323Z,46.94
2016-02-19T10:58:12.341Z,47.03
2016-02-19T10:59:12.376Z,47.13
2016-02-19T11:00:12.441Z,47.03
2016-02-19T11:01:12.491Z,46.94
2016-02-19T11:02:12.524Z,46.84
2016-02-19T11:03:12.589Z,47.03
2016-02-19T11:04:12.640Z,46.55
2016-02-19T11:05:12.673Z,46.55
2016-02-19T11:06:12.722Z,46.75
2016-02-19T11:07:12.788Z,47.22
2016-02-19T11:08:12.837Z,46.84
2016-02-19T11:09:12.871Z,47.71
2016-02-19T11:10:12.937Z,46.84
2016-02-19T11:11:12.986Z,46.84
2016-02-19T11:12:13.051Z,46.84
2016-02-19T11:13:13.070Z,46.65
2016-02-19T11:14:13.134Z,46.75
2016-02-19T11:15:13.184Z,46.75
2016-02-19T11:16:13.234Z,47.32
2016-02-19T11:17:13.284Z,46.94
2016-02-19T11:18:13.317Z,47.32
2016-02-19T11:19:13.383Z,47.25
2016-02-19T11:20:13.433Z,47.51
2016-02-19T11:21:13.481Z,47.92
2016-02-19T11:22:13.531Z,47.53
2016-02-19T11:23:13.580Z,47.15
2016-02-19T11:24:13.614Z,47.34
2016-02-19T11:25:13.680Z,47.34
2016-02-19T11:26:13.730Z,47.53
2016-02-19T11:27:13.763Z,47.53
2016-02-19T11:28:13.829Z,47.15
2016-02-19T11:29:13.863Z,47.15
2016-02-19T11:30:13.927Z,47.15
2016-02-19T11:31:13.977Z,47.44
2016-02-19T11:32:14.027Z,47.44
2016-02-19T11:33:14.076Z,47.25
2016-02-19T11:34:14.141Z,47.34
2016-02-19T11:35:14.160Z,47.37
2016-02-19T11:36:14.240Z,46.79
2016-02-19T11:37:14.275Z,47.37
2016-02-19T11:38:14.309Z,46.7
2016-02-19T11:39:14.373Z,47.94
2016-02-19T11:40:14.424Z,47.08
2016-02-19T11:41:14.457Z,47.37
2016-02-19T11:42:14.522Z,47.27
2016-02-19T11:43:14.572Z,47.75
2016-02-19T11:44:14.622Z,47.27
2016-02-19T11:45:14.702Z,47.27
2016-02-19T11:46:14.721Z,47.37
2016-02-19T11:47:14.770Z,47.37
2016-02-19T11:48:14.819Z,47.17
2016-02-19T11:49:14.870Z,47.75
2016-02-19T11:50:14.919Z,48.04
2016-02-19T11:51:14.968Z,48.61
2016-02-19T11:52:15.033Z,48.43
2016-02-19T11:53:15.067Z,47.85
2016-02-19T11:54:15.133Z,47.94
2016-02-19T11:55:15.167Z,47.75
2016-02-19T11:56:15.232Z,48.23
2016-02-19T11:57:15.266Z,47.94
2016-02-19T11:58:15.316Z,47.85
2016-02-19T11:59:15.380Z,47.85
2016-02-19T12:00:15.430Z,48.13
2016-02-19T12:01:15.480Z,48.52
2016-02-19T12:02:15.529Z,48.52
2016-02-19T12:03:15.580Z,48.23
2016-02-19T12:04:15.629Z,48.43
2016-02-19T12:05:15.710Z,48.43
2016-02-19T12:06:15.728Z,48.52
2016-02-19T12:07:15.762Z,48.13
2016-02-19T12:08:15.890Z,48.43
2016-02-19T12:09:15.860Z,48.07
2016-02-19T12:10:15.926Z,48.23
2016-02-19T12:11:15.975Z,48.35
2016-02-19T12:12:16.010Z,48.54
2016-02-19T12:13:16.090Z,48.25
2016-02-19T12:14:16.123Z,48.35
2016-02-19T12:15:16.174Z,48.16
2016-02-19T12:16:16.223Z,48.13
2016-02-19T12:17:16.272Z,48.54
2016-02-19T12:18:16.323Z,48.35
2016-02-19T12:19:16.387Z,48.35
2016-02-19T12:20:16.437Z,48.35
2016-02-19T12:21:16.503Z,49.31
2016-02-19T12:22:16.520Z,49.21
2016-02-19T12:23:16.586Z,48.64
2016-02-19T12:24:16.635Z,48.35
2016-02-19T12:25:16.669Z,48.44
2016-02-19T12:26:16.734Z,48.54
2016-02-19T12:27:16.783Z,48.44
2016-02-19T12:28:16.818Z,48.64
2016-02-19T12:29:16.883Z,48.25
2016-02-19T12:30:16.933Z,47.97
2016-02-19T12:31:16.966Z,48.07
2016-02-19T12:32:17.032Z,47.87
2016-02-19T12:33:17.082Z,47.97
2016-02-19T12:34:17.131Z,47.97
2016-02-19T12:35:17.180Z,47.97
2016-02-19T12:36:17.230Z,47.97
2016-02-19T12:37:17.296Z,46.05
2016-02-19T12:38:17.329Z,43.36
2016-02-19T12:39:17.379Z,40.96
2016-02-19T12:40:17.429Z,40.75
2016-02-19T12:41:17.493Z,41.42
2016-02-19T12:42:17.527Z,42.55
2016-02-19T12:43:17.577Z,42.84
2016-02-19T12:44:17.642Z,44.37
2016-02-19T12:45:17.676Z,45.33
2016-02-19T12:46:18.273Z,44.18
2016-02-19T12:47:17.791Z,42.74
2016-02-19T12:48:17.840Z,43.49
2016-02-19T12:49:17.890Z,43.39
2016-02-19T12:50:17.939Z,43.1
2016-02-19T12:51:17.973Z,42.74
2016-02-19T12:52:18.055Z,42.36
2016-02-19T12:53:18.088Z,41.31
2016-02-19T12:54:18.139Z,40.73
2016-02-19T12:55:18.188Z,40.42
2016-02-19T12:56:18.236Z,40.81
2016-02-19T12:57:18.302Z,40.9